createdAt,value
2023-01-06T00:01:42.459Z,100831.94
2023-01-06T00:04:45.259Z,100827.34
2023-01-06T00:07:50.309Z,100819.13
2023-01-06T00:10:57.491Z,100829.03
2023-01-06T00:14:03.908Z,100802.38
2023-01-06T00:17:06.592Z,100817.25
2023-01-06T00:20:15.447Z,100812.84
2023-01-06T00:23:18.203Z,100802.94
2023-01-06T00:26:22.919Z,100809.16
2023-01-06T00:29:25.613Z,100802.00
2023-01-06T00:32:28.379Z,100803.66
2023-01-06T00:35:33.304Z,100804.56
2023-01-06T00:38:37.315Z,100798.13
2023-01-06T00:41:59.236Z,100793.53
2023-01-06T00:45:01.921Z,100801.72
2023-01-06T00:48:10.803Z,100798.06
2023-01-06T00:51:13.471Z,100787.22
2023-01-06T00:54:17.056Z,100784.50
2023-01-06T00:57:25.078Z,100780.97
2023-01-06T01:00:30.875Z,100792.75
2023-01-06T01:03:34.797Z,100783.19
2023-01-06T01:06:38.317Z,100787.44
2023-01-06T01:09:41.070Z,100782.03
2023-01-06T01:12:54.031Z,100784.84
2023-01-06T01:15:56.835Z,100772.16
2023-01-06T01:18:59.607Z,100772.06
2023-01-06T01:22:02.820Z,100772.00
2023-01-06T01:25:06.242Z,100779.25
2023-01-06T01:28:10.254Z,100776.59
2023-01-06T01:31:16.906Z,100775.66
2023-01-06T01:34:20.556Z,100771.06
2023-01-06T01:37:23.348Z,100774.72
2023-01-06T01:40:26.028Z,100781.91
2023-01-06T01:46:57.475Z,100775.53
2023-01-06T01:50:06.539Z,100769.28
2023-01-06T01:53:14.402Z,100774.88
2023-01-06T01:56:21.232Z,100780.19
2023-01-06T01:59:27.075Z,100776.53
2023-01-06T02:02:33.343Z,100772.84
2023-01-06T02:05:45.148Z,100773.84
2023-01-06T02:08:56.436Z,100756.81
2023-01-06T02:12:02.812Z,100774.72
2023-01-06T02:15:16.633Z,100771.19
2023-01-06T02:19:03.492Z,100776.75
2023-01-06T02:22:32.364Z,100765.75
2023-01-06T02:26:00.747Z,100755.16
2023-01-06T02:29:28.913Z,100765.91
2023-01-06T02:32:42.404Z,100765.91
2023-01-06T02:36:07.860Z,100764.13
2023-01-06T02:39:23.167Z,100764.00
2023-01-06T02:42:50.056Z,100762.38
2023-01-06T02:46:03.789Z,100759.84
2023-01-06T02:49:21.937Z,100747.25
2023-01-06T02:52:32.585Z,100749.88
2023-01-06T02:55:39.151Z,100744.19
2023-01-06T02:58:48.468Z,100740.66
2023-01-06T03:01:54.809Z,100734.56
2023-01-06T03:05:02.658Z,100733.72
2023-01-06T03:08:09.683Z,100726.81
2023-01-06T03:11:16.083Z,100736.38
2023-01-06T03:14:25.775Z,100711.47
2023-01-06T03:17:28.580Z,100726.41
2023-01-06T03:20:35.977Z,100722.75
2023-01-06T03:23:40.568Z,100716.50
2023-01-06T03:26:46.289Z,100722.00
2023-01-06T03:29:49.225Z,100715.75
2023-01-06T03:33:08.269Z,100712.31
2023-01-06T03:36:22.656Z,100718.66
2023-01-06T03:39:34.880Z,100723.94
2023-01-06T03:43:02.903Z,100722.13
2023-01-06T03:46:28.298Z,100727.53
2023-01-06T03:49:38.042Z,100728.31
2023-01-06T03:52:49.228Z,100718.41
2023-01-06T03:56:04.347Z,100713.81
2023-01-06T03:59:14.651Z,100729.19
2023-01-06T04:02:20.638Z,100730.06
2023-01-06T04:05:28.796Z,100724.66
2023-01-06T04:08:32.789Z,100714.69
2023-01-06T04:11:53.352Z,100717.47
2023-01-06T04:14:58.470Z,100715.69
2023-01-06T04:18:04.425Z,100715.69
2023-01-06T04:21:07.183Z,100704.16
2023-01-06T04:24:11.345Z,100699.06
2023-01-06T04:27:20.739Z,100699.81
2023-01-06T04:30:23.380Z,100701.56
2023-01-06T04:33:26.034Z,100694.53
2023-01-06T04:36:28.822Z,100689.34
2023-01-06T04:39:32.832Z,100680.44
2023-01-06T04:42:49.867Z,100675.50
2023-01-06T04:45:52.662Z,100677.84
2023-01-06T04:48:57.389Z,100680.88
2023-01-06T04:52:02.123Z,100675.63
2023-01-06T04:55:06.647Z,100685.88
2023-01-06T04:58:10.058Z,100698.63
2023-01-06T05:01:14.306Z,100679.72
2023-01-06T05:04:16.992Z,100688.59
2023-01-06T05:07:19.672Z,100666.75
2023-01-06T05:10:26.385Z,100672.81
2023-01-06T05:13:32.364Z,100672.69
2023-01-06T05:16:38.321Z,100668.88
2023-01-06T05:19:42.935Z,100663.41
2023-01-06T05:22:45.621Z,100663.47
2023-01-06T05:25:51.554Z,100671.66
2023-01-06T05:28:54.426Z,100673.31
2023-01-06T05:31:57.133Z,100669.56
2023-01-06T05:35:02.475Z,100675.00
2023-01-06T05:38:05.452Z,100673.25
2023-01-06T05:41:09.863Z,100670.53
2023-01-06T05:44:14.878Z,100669.50
2023-01-06T05:47:17.553Z,100680.31
2023-01-06T05:50:20.269Z,100672.16
2023-01-06T05:53:22.966Z,100671.28
2023-01-06T05:56:33.043Z,100671.34
2023-01-06T05:59:35.702Z,100673.16
2023-01-06T06:02:38.337Z,100683.22
2023-01-06T06:05:41.397Z,100671.50
2023-01-06T06:08:47.289Z,100664.25
2023-01-06T06:11:51.881Z,100674.09
2023-01-06T06:14:54.603Z,100675.25
2023-01-06T06:17:57.258Z,100672.53
2023-01-06T06:21:03.710Z,100673.31
2023-01-06T06:24:07.216Z,100668.00
2023-01-06T06:27:11.373Z,100678.59
2023-01-06T06:30:16.631Z,100673.09
2023-01-06T06:33:22.451Z,100674.06
2023-01-06T06:36:26.078Z,100682.06
2023-01-06T06:39:31.809Z,100679.34
2023-01-06T06:42:35.912Z,100683.69
2023-01-06T06:45:49.195Z,100693.75
2023-01-06T06:48:52.364Z,100692.84
2023-01-06T06:51:55.624Z,100693.75
2023-01-06T06:54:58.299Z,100694.69
2023-01-06T06:58:02.349Z,100693.78
2023-01-06T07:01:05.815Z,100694.72
2023-01-06T07:04:09.975Z,100690.31
2023-01-06T07:07:12.648Z,100694.84
2023-01-06T07:10:16.972Z,100683.38
2023-01-06T07:13:24.077Z,100695.00
2023-01-06T07:16:27.555Z,100699.47
2023-01-06T07:19:32.327Z,100680.50
2023-01-06T07:22:38.437Z,100686.16
2023-01-06T07:25:43.122Z,100700.47
2023-01-06T07:28:47.165Z,100703.19
2023-01-06T07:31:52.998Z,100705.00
2023-01-06T07:34:55.683Z,100707.78
2023-01-06T07:38:03.596Z,100708.59
2023-01-06T07:41:06.311Z,100718.50
2023-01-06T07:44:10.426Z,100718.50
2023-01-06T07:47:13.070Z,100707.41
2023-01-06T07:50:26.488Z,100713.72
2023-01-06T07:53:29.259Z,100717.19
2023-01-06T07:56:34.144Z,100716.09
2023-01-06T07:59:41.677Z,100727.63
2023-01-06T08:02:48.041Z,100734.72
2023-01-06T08:05:50.790Z,100725.06
2023-01-06T08:08:53.533Z,100731.78
2023-01-06T08:11:56.210Z,100729.06
2023-01-06T08:15:03.204Z,100733.50
2023-01-06T08:18:06.435Z,100732.41
2023-01-06T08:21:11.719Z,100735.19
2023-01-06T08:24:14.361Z,100742.13
2023-01-06T08:27:20.684Z,100747.00
2023-01-06T08:30:39.725Z,100746.47
2023-01-06T08:33:48.643Z,100763.03
2023-01-06T08:36:52.643Z,100767.22
2023-01-06T08:39:55.421Z,100798.38
2023-01-06T08:43:05.599Z,100772.28
2023-01-06T08:46:12.507Z,100777.72
2023-01-06T08:49:15.609Z,100800.56
2023-01-06T08:52:21.721Z,100795.41
2023-01-06T08:55:26.549Z,100787.69
2023-01-06T08:58:29.227Z,100782.88
2023-01-06T09:01:37.287Z,100779.75
2023-01-06T09:04:40.316Z,100787.78
2023-01-06T09:07:43.033Z,100788.28
2023-01-06T09:10:45.999Z,100781.53
2023-01-06T09:13:50.512Z,100778.53
2023-01-06T09:16:54.616Z,100780.25
2023-01-06T09:19:57.268Z,100782.97
2023-01-06T09:23:02.233Z,100791.94
2023-01-06T09:26:05.316Z,100770.00
2023-01-06T09:29:15.272Z,100773.28
2023-01-06T09:32:19.282Z,100771.25
2023-01-06T09:35:22.013Z,100767.34
2023-01-06T09:38:24.701Z,100769.13
2023-01-06T09:41:54.258Z,100779.97
2023-01-06T09:44:59.589Z,100790.81
2023-01-06T09:48:07.155Z,100791.69
2023-01-06T09:51:15.933Z,100801.56
2023-01-06T09:54:23.845Z,100805.13
2023-01-06T09:57:32.202Z,100801.34
2023-01-06T10:00:39.334Z,100794.72
2023-01-06T10:03:44.348Z,100788.09
2023-01-06T10:06:53.592Z,100777.81
2023-01-06T10:10:08.493Z,100766.72
2023-01-06T10:13:33.038Z,100761.97
2023-01-06T10:16:53.156Z,100766.41
2023-01-06T10:20:07.111Z,100771.56
2023-01-06T10:23:26.808Z,100779.50
2023-01-06T10:26:31.904Z,100782.41
2023-01-06T10:29:37.978Z,100777.38
2023-01-06T10:32:42.825Z,100788.44
2023-01-06T10:35:47.024Z,100775.59
2023-01-06T10:38:53.439Z,100781.41
2023-01-06T10:42:16.652Z,100762.06
2023-01-06T10:45:21.226Z,100759.97
2023-01-06T10:48:28.077Z,100767.28
2023-01-06T10:51:40.253Z,100774.59
2023-01-06T10:54:44.238Z,100770.88
2023-01-06T10:57:48.260Z,100775.41
2023-01-06T11:00:59.515Z,100747.09
2023-01-06T11:04:11.655Z,100775.41
2023-01-06T11:07:15.898Z,100757.69
2023-01-06T11:10:28.428Z,100772.69
2023-01-06T11:13:35.647Z,100774.41
2023-01-06T11:16:38.405Z,100781.72
2023-01-06T11:19:43.087Z,100774.59
2023-01-06T11:22:48.450Z,100761.44
2023-01-06T11:26:12.861Z,100763.69
2023-01-06T11:29:23.988Z,100767.09
2023-01-06T11:32:30.497Z,100748.13
2023-01-06T11:35:34.579Z,100762.41
2023-01-06T11:38:48.200Z,100740.94
2023-01-06T11:41:53.902Z,100754.00
2023-01-06T11:44:59.163Z,100743.94
2023-01-06T11:48:02.530Z,100739.34
2023-01-06T11:51:08.134Z,100741.91
2023-01-06T11:54:24.796Z,100732.56
2023-01-06T11:57:35.524Z,100713.56
2023-01-06T12:00:46.509Z,100701.41
2023-01-06T12:03:55.159Z,100690.25
2023-01-06T12:07:04.711Z,100687.09
2023-01-06T12:10:17.395Z,100670.94
2023-01-06T12:13:20.184Z,100677.41
2023-01-06T12:16:36.172Z,100671.56
2023-01-06T12:19:46.131Z,100672.97
2023-01-06T12:22:51.072Z,100670.19
2023-01-06T12:25:57.638Z,100689.31
2023-01-06T12:29:01.939Z,100675.81
2023-01-06T12:32:11.460Z,100694.66
2023-01-06T12:35:20.803Z,100689.94
2023-01-06T12:38:43.492Z,100696.78
2023-01-06T12:41:53.175Z,100697.81
2023-01-06T12:45:02.970Z,100690.69
2023-01-06T12:48:18.026Z,100687.91
2023-01-06T12:51:37.323Z,100690.88
2023-01-06T12:54:40.523Z,100687.22
2023-01-06T12:57:56.974Z,100692.59
2023-01-06T13:01:06.322Z,100692.53
2023-01-06T13:04:43.487Z,100695.91
2023-01-06T13:07:52.665Z,100696.84
2023-01-06T13:11:08.231Z,100703.38
2023-01-06T13:14:21.494Z,100713.59
2023-01-06T13:17:29.984Z,100706.50
2023-01-06T13:20:43.155Z,100704.75
2023-01-06T13:24:05.616Z,100691.31
2023-01-06T13:27:38.791Z,100686.97
2023-01-06T13:31:09.701Z,100687.84
2023-01-06T13:34:34.944Z,100681.00
2023-01-06T13:37:42.138Z,100687.38
2023-01-06T13:40:48.521Z,100687.44
2023-01-06T13:43:54.235Z,100689.59
2023-01-06T13:47:06.250Z,100694.16
2023-01-06T13:50:13.266Z,100710.31
2023-01-06T13:53:20.865Z,100699.84
2023-01-06T13:56:29.215Z,100701.75
2023-01-06T13:59:49.165Z,100710.22
2023-01-06T14:03:29.238Z,100711.25
2023-01-06T14:06:47.024Z,100707.72
2023-01-06T14:09:51.017Z,100715.84
2023-01-06T14:12:54.435Z,100718.50
2023-01-06T14:15:59.974Z,100715.81
2023-01-06T14:19:08.462Z,100720.34
2023-01-06T14:22:17.037Z,100727.03
2023-01-06T14:25:24.416Z,100729.81
2023-01-06T14:28:32.281Z,100726.22
2023-01-06T14:31:39.398Z,100722.88
2023-01-06T14:34:50.334Z,100723.88
2023-01-06T14:37:59.007Z,100721.13
2023-01-06T14:41:05.474Z,100728.31
2023-01-06T14:44:14.873Z,100731.97
2023-01-06T14:47:23.797Z,100729.31
2023-01-06T14:50:45.769Z,100738.22
2023-01-06T14:54:04.402Z,100732.91
2023-01-06T14:57:07.723Z,100730.34
2023-01-06T15:00:17.881Z,100728.41
2023-01-06T15:03:23.766Z,100729.31
2023-01-06T15:06:29.295Z,100708.94
2023-01-06T15:09:33.336Z,100730.19
2023-01-06T15:12:36.795Z,100724.03
2023-01-06T15:15:39.832Z,100734.09
2023-01-06T15:18:44.831Z,100736.00
2023-01-06T15:21:50.788Z,100734.38
2023-01-06T15:24:57.695Z,100728.19
2023-01-06T15:28:00.449Z,100738.47
2023-01-06T15:31:03.837Z,100736.97
2023-01-06T15:34:09.661Z,100739.03
2023-01-06T15:37:20.383Z,100735.97
2023-01-06T15:40:23.671Z,100739.75
2023-01-06T15:43:29.137Z,100747.25
2023-01-06T15:46:40.653Z,100741.09
2023-01-06T15:49:49.650Z,100741.84
2023-01-06T15:52:55.823Z,100741.91
2023-01-06T15:56:00.234Z,100741.97
2023-01-06T15:59:03.474Z,100745.91
2023-01-06T16:02:06.504Z,100745.03
2023-01-06T16:05:38.221Z,100746.53
2023-01-06T16:08:43.436Z,100741.22
2023-01-06T16:11:58.930Z,100729.13
2023-01-06T16:15:45.059Z,100738.31
2023-01-06T16:18:52.168Z,100739.38
2023-01-06T16:21:56.481Z,100718.25
2023-01-06T16:25:07.865Z,100738.16
2023-01-06T16:28:20.616Z,100731.19
2023-01-06T16:31:32.290Z,100729.72
2023-01-06T16:34:35.047Z,100735.25
2023-01-06T16:37:37.709Z,100745.84
2023-01-06T16:40:41.728Z,100749.66
2023-01-06T16:43:45.352Z,100731.69
2023-01-06T16:46:48.167Z,100746.56
2023-01-06T16:49:50.855Z,100755.72
2023-01-06T16:53:03.154Z,100760.69
2023-01-06T16:56:18.696Z,100765.13
2023-01-06T16:59:22.142Z,100765.03
2023-01-06T17:02:24.951Z,100759.91
2023-01-06T17:05:30.018Z,100772.88
2023-01-06T17:08:38.488Z,100772.00
2023-01-06T17:11:42.627Z,100776.66
2023-01-06T17:14:45.238Z,100770.91
2023-01-06T17:17:50.220Z,100774.41
2023-01-06T17:20:55.782Z,100770.69
2023-01-06T17:24:06.366Z,100772.31
2023-01-06T17:27:23.398Z,100777.63
2023-01-06T17:30:28.390Z,100777.41
2023-01-06T17:33:31.566Z,100756.25
2023-01-06T17:36:39.609Z,100791.66
2023-01-06T17:39:44.018Z,100795.19
2023-01-06T17:42:51.904Z,100790.53
2023-01-06T17:45:54.647Z,100793.06
2023-01-06T17:49:03.943Z,100793.06
2023-01-06T17:52:17.342Z,100799.31
2023-01-06T17:55:44.957Z,100801.03
2023-01-06T17:58:49.131Z,100793.72
2023-01-06T18:01:52.857Z,100803.63
2023-01-06T18:04:58.329Z,100790.16
2023-01-06T18:08:11.633Z,100800.84
2023-01-06T18:11:26.453Z,100803.56
2023-01-06T18:14:33.087Z,100797.22
2023-01-06T18:17:36.355Z,100795.34
2023-01-06T18:20:39.120Z,100771.28
2023-01-06T18:23:43.095Z,100786.31
2023-01-06T18:26:51.598Z,100781.94
2023-01-06T18:29:57.576Z,100791.09
2023-01-06T18:33:01.912Z,100790.34
2023-01-06T18:36:05.633Z,100790.50
2023-01-06T18:39:09.533Z,100792.47
2023-01-06T18:42:27.455Z,100794.53
2023-01-06T18:45:36.735Z,100797.28
2023-01-06T18:48:39.660Z,100797.28
2023-01-06T18:51:43.241Z,100797.28
2023-01-06T18:54:45.905Z,100800.94
2023-01-06T18:57:56.568Z,100802.84
2023-01-06T19:01:03.487Z,100795.69
2023-01-06T19:04:11.060Z,100803.88
2023-01-06T19:07:28.919Z,100797.63
2023-01-06T19:10:31.628Z,100804.81
2023-01-06T19:13:34.563Z,100810.97
2023-01-06T19:16:44.165Z,100810.97
2023-01-06T19:19:47.031Z,100810.03
2023-01-06T19:22:50.792Z,100811.75
2023-01-06T19:25:58.954Z,100809.78
2023-01-06T19:29:03.839Z,100815.16
2023-01-06T19:32:15.777Z,100814.19
2023-01-06T19:35:25.467Z,100813.16
2023-01-06T19:38:30.133Z,100817.59
2023-01-06T19:41:34.688Z,100813.19
2023-01-06T19:44:39.048Z,100808.56
2023-01-06T19:47:43.268Z,100811.16
2023-01-06T19:50:48.072Z,100808.34
2023-01-06T19:53:53.795Z,100794.19
2023-01-06T19:56:57.548Z,100807.41
2023-01-06T20:00:03.096Z,100796.50
2023-01-06T20:03:29.247Z,100809.22
2023-01-06T20:06:31.982Z,100804.56
2023-01-06T20:09:35.173Z,100807.25
2023-01-06T20:12:38.111Z,100810.75
2023-01-06T20:15:40.837Z,100806.22
2023-01-06T20:18:44.876Z,100809.81
2023-01-06T20:21:47.739Z,100809.72
2023-01-06T20:24:50.469Z,100802.44
2023-01-06T20:27:53.200Z,100808.63
2023-01-06T20:30:55.891Z,100806.81
2023-01-06T20:34:06.004Z,100805.88
2023-01-06T20:37:08.713Z,100803.13
2023-01-06T20:40:12.040Z,100811.16
2023-01-06T20:43:14.709Z,100818.50
2023-01-06T20:46:17.544Z,100820.25
2023-01-06T20:49:21.631Z,100819.38
2023-01-06T20:52:24.534Z,100817.59
2023-01-06T20:56:03.451Z,100802.38
2023-01-06T20:59:37.588Z,100820.25
2023-01-06T21:03:21.326Z,100819.22
2023-01-06T21:06:25.650Z,100822.84
2023-01-06T21:09:29.190Z,100816.47
2023-01-06T21:12:31.989Z,100803.22
2023-01-06T21:15:35.126Z,100824.66
2023-01-06T21:18:37.775Z,100820.13
2023-01-06T21:21:42.548Z,100793.81
2023-01-06T21:24:45.209Z,100819.22
2023-01-06T21:27:47.962Z,100820.16
2023-01-06T21:30:50.822Z,100817.47
2023-01-06T21:33:53.941Z,100813.81
2023-01-06T21:36:58.009Z,100805.75
2023-01-06T21:40:00.896Z,100801.22
2023-01-06T21:43:09.365Z,100803.91
2023-01-06T21:46:12.172Z,100804.88
2023-01-06T21:49:15.008Z,100798.63
2023-01-06T21:52:19.209Z,100803.22
2023-01-06T21:55:22.080Z,100805.94
2023-01-06T21:58:25.568Z,100803.81
2023-01-06T22:01:28.418Z,100820.66
2023-01-06T22:04:31.124Z,100824.31
2023-01-06T22:07:37.120Z,100817.16
2023-01-06T22:10:43.361Z,100817.09
2023-01-06T22:13:46.447Z,100812.47
2023-01-06T22:16:49.261Z,100817.06
2023-01-06T22:19:54.875Z,100817.84
2023-01-06T22:23:02.277Z,100808.69
2023-01-06T22:26:05.327Z,100817.72
2023-01-06T22:29:08.341Z,100812.41
2023-01-06T22:32:11.029Z,100815.28
2023-01-06T22:35:15.260Z,100745.38
2023-01-06T22:38:21.453Z,100808.97
2023-01-06T22:41:24.790Z,100803.47
2023-01-06T22:44:27.650Z,100798.94
2023-01-06T22:47:30.461Z,100797.00
2023-01-06T22:50:33.709Z,100803.31
2023-01-06T22:53:38.052Z,100799.69
2023-01-06T22:56:41.914Z,100796.03
2023-01-06T22:59:45.043Z,100782.53
2023-01-06T23:02:48.072Z,100788.97
2023-01-06T23:05:58.293Z,100791.78
2023-01-06T23:09:02.568Z,100786.41
2023-01-06T23:12:06.829Z,100788.28
2023-01-06T23:15:10.695Z,100798.28
2023-01-06T23:18:13.435Z,100791.97
2023-01-06T23:21:21.368Z,100794.59
2023-01-06T23:24:26.015Z,100787.38
2023-01-06T23:27:36.131Z,100795.38
2023-01-06T23:30:38.764Z,100789.91
2023-01-06T23:33:42.874Z,100789.03
2023-01-06T23:36:45.907Z,100784.50
2023-01-06T23:39:49.919Z,100780.84
2023-01-06T23:42:53.918Z,100783.56
2023-01-06T23:46:00.556Z,100779.03
2023-01-06T23:49:03.719Z,100773.75
2023-01-06T23:52:06.525Z,100772.19
2023-01-06T23:55:11.076Z,100761.34
2023-01-06T23:58:13.738Z,100760.47
